Time;durP1;ratioP1;P1;durP2;ratioP2;P2;SDS_P1;SDS_P2;PMS_P1;PMS_P2;Temp;Humidity;BMP_temperature;BMP_pressure;BME280_temperature;BME280_humidity;BME280_pressure;Samples;Min_cycle;Max_cycle;Signal;HPM_P1;HPM_P2
2022/08/24 00:00:03;;;;;;;9.50;7.45;;;;;;;;;;5030637;28;20265;-15
2022/08/24 00:02:30;;;;;;;9.15;6.88;;;;;;;;;;5030277;28;20235;-15
2022/08/24 00:04:58;;;;;;;8.63;6.97;;;;;;;;;;5029751;28;20230;-15
2022/08/24 00:07:25;;;;;;;9.82;7.28;;;;;;;;;;5029853;28;20834;-16
2022/08/24 00:09:54;;;;;;;8.27;6.95;;;;;;;;;;5016562;28;20296;-15
2022/08/24 00:12:23;;;;;;;8.27;6.63;;;;;;;;;;5029359;28;20235;-15
2022/08/24 00:14:50;;;;;;;7.32;6.07;;;;;;;;;;5030614;28;20239;-15
2022/08/24 00:17:19;;;;;;;9.10;6.28;;;;;;;;;;5029980;28;20238;-15
2022/08/24 00:19:46;;;;;;;9.13;6.45;;;;;;;;;;5032102;28;20227;-15
2022/08/24 00:22:13;;;;;;;7.05;5.80;;;;;;;;;;5033140;28;20238;-15
2022/08/24 00:24:41;;;;;;;8.60;5.82;;;;;;;;;;5033579;28;20230;-15
2022/08/24 00:27:10;;;;;;;8.52;6.40;;;;;;;;;;5033042;28;20268;-16
2022/08/24 00:29:38;;;;;;;7.82;5.60;;;;;;;;;;5033601;28;20235;-15
2022/08/24 00:32:06;;;;;;;7.18;5.78;;;;;;;;;;5033516;28;20237;-15
2022/08/24 00:34:34;;;;;;;6.90;5.60;;;;;;;;;;5033843;28;20227;-15
2022/08/24 00:37:01;;;;;;;10.25;6.47;;;;;;;;;;5032248;28;20231;-16
2022/08/24 00:39:29;;;;;;;7.97;6.40;;;;;;;;;;5032809;28;20234;-15
2022/08/24 00:41:56;;;;;;;9.18;7.28;;;;;;;;;;5033384;28;20239;-15
2022/08/24 00:44:24;;;;;;;11.48;7.40;;;;;;;;;;5033504;28;20238;-16
2022/08/24 00:46:53;;;;;;;11.18;7.20;;;;;;;;;;5031751;28;20234;-15
2022/08/24 00:49:22;;;;;;;10.25;7.55;;;;;;;;;;5023209;28;20253;-15
2022/08/24 00:51:54;;;;;;;11.23;8.40;;;;;;;;;;5033065;28;21029;-15
2022/08/24 00:54:21;;;;;;;11.90;7.65;;;;;;;;;;5032452;28;20946;-15
2022/08/24 00:56:50;;;;;;;10.25;7.57;;;;;;;;;;5033270;28;20612;-15
2022/08/24 00:59:18;;;;;;;8.95;7.38;;;;;;;;;;5032665;28;20230;-15
2022/08/24 01:01:46;;;;;;;8.50;7.38;;;;;;;;;;5032376;28;20234;-16
2022/08/24 01:04:17;;;;;;;8.98;7.10;;;;;;;;;;5033060;28;20231;-16
2022/08/24 01:06:45;;;;;;;7.28;6.53;;;;;;;;;;5032939;28;20233;-15
2022/08/24 01:09:12;;;;;;;6.82;5.90;;;;;;;;;;5030952;28;20239;-15
2022/08/24 01:11:43;;;;;;;8.23;6.70;;;;;;;;;;5032406;28;20237;-15
2022/08/24 01:14:10;;;;;;;8.15;7.35;;;;;;;;;;5033073;28;20268;-16
2022/08/24 01:19:27;;;;;;;8.27;6.90;;;;;;;;;;5032962;28;20262;-15
2022/08/24 01:21:58;;;;;;;8.90;6.80;;;;;;;;;;5031212;28;20242;-15
2022/08/24 01:24:26;;;;;;;7.50;5.95;;;;;;;;;;5031442;28;21027;-15
2022/08/24 01:26:54;;;;;;;8.63;6.00;;;;;;;;;;5031628;28;20227;-16
2022/08/24 01:29:22;;;;;;;10.52;6.43;;;;;;;;;;5030690;28;20243;-15
2022/08/24 01:31:50;;;;;;;7.40;5.90;;;;;;;;;;5030951;28;20721;-15
2022/08/24 01:34:17;;;;;;;7.80;6.95;;;;;;;;;;5032215;28;20229;-15
2022/08/24 01:36:45;;;;;;;9.65;7.53;;;;;;;;;;5032667;28;20235;-15
2022/08/24 01:39:14;;;;;;;8.60;7.03;;;;;;;;;;5032863;28;20744;-16
2022/08/24 01:41:43;;;;;;;9.00;6.95;;;;;;;;;;5022578;28;21070;-15
2022/08/24 01:44:10;;;;;;;9.50;7.38;;;;;;;;;;5032193;28;20238;-15
2022/08/24 01:46:37;;;;;;;11.35;6.53;;;;;;;;;;5032232;28;20940;-15
2022/08/24 01:49:05;;;;;;;8.43;6.95;;;;;;;;;;5032241;28;20246;-16
2022/08/24 01:51:32;;;;;;;7.82;7.03;;;;;;;;;;5031695;28;20243;-15
2022/08/24 01:54:01;;;;;;;9.45;7.20;;;;;;;;;;5032106;28;20733;-15
2022/08/24 01:56:29;;;;;;;9.02;7.35;;;;;;;;;;5025881;28;20240;-15
2022/08/24 01:59:00;;;;;;;9.32;7.88;;;;;;;;;;5032366;28;20552;-15
2022/08/24 02:01:27;;;;;;;9.70;7.30;;;;;;;;;;5032189;28;20231;-15
2022/08/24 02:03:55;;;;;;;7.60;6.90;;;;;;;;;;5032491;28;20230;-15
2022/08/24 02:06:22;;;;;;;10.63;7.10;;;;;;;;;;5031816;28;20223;-15
2022/08/24 02:08:50;;;;;;;8.32;7.40;;;;;;;;;;5031542;28;20242;-16
2022/08/24 02:11:17;;;;;;;10.15;8.07;;;;;;;;;;5032057;28;20278;-16
2022/08/24 02:13:44;;;;;;;10.18;9.13;;;;;;;;;;5029253;28;20223;-15
2022/08/24 02:16:14;;;;;;;11.70;9.15;;;;;;;;;;5031073;28;20235;-15
2022/08/24 02:18:41;;;;;;;9.18;8.30;;;;;;;;;;5027434;28;21094;-15
2022/08/24 02:21:08;;;;;;;10.77;8.88;;;;;;;;;;5032113;28;20227;-15
2022/08/24 02:23:36;;;;;;;10.02;8.73;;;;;;;;;;5030829;28;20257;-15
2022/08/24 02:26:03;;;;;;;9.50;8.52;;;;;;;;;;5033023;28;20239;-16
2022/08/24 02:28:31;;;;;;;10.68;8.50;;;;;;;;;;5032226;28;21192;-15
2022/08/24 02:30:58;;;;;;;10.20;8.40;;;;;;;;;;5030769;28;20237;-15
2022/08/24 02:33:27;;;;;;;11.10;9.38;;;;;;;;;;5031138;28;20717;-15
2022/08/24 02:35:54;;;;;;;10.35;9.35;;;;;;;;;;5030182;28;20238;-15
2022/08/24 02:38:22;;;;;;;10.50;8.55;;;;;;;;;;5029320;28;20242;-15
2022/08/24 02:40:49;;;;;;;10.23;9.18;;;;;;;;;;5028691;28;20703;-15
2022/08/24 02:43:17;;;;;;;9.80;8.90;;;;;;;;;;5024932;28;20726;-14
2022/08/24 02:45:44;;;;;;;10.88;9.50;;;;;;;;;;5025172;28;20253;-15
2022/08/24 02:48:16;;;;;;;11.07;9.25;;;;;;;;;;5018025;28;20238;-15
2022/08/24 02:50:46;;;;;;;12.20;9.00;;;;;;;;;;5031377;28;20273;-16
2022/08/24 02:53:13;;;;;;;11.25;9.48;;;;;;;;;;5031143;28;20772;-15
2022/08/24 02:55:41;;;;;;;9.65;8.75;;;;;;;;;;5031529;28;20241;-15
2022/08/24 02:58:09;;;;;;;9.88;8.02;;;;;;;;;;5031168;28;20741;-15
2022/08/24 03:00:37;;;;;;;10.77;7.80;;;;;;;;;;5023663;28;20608;-15
2022/08/24 03:03:05;;;;;;;10.95;8.07;;;;;;;;;;5030976;28;20665;-16
2022/08/24 03:05:33;;;;;;;9.57;7.88;;;;;;;;;;5030379;28;20262;-15
2022/08/24 03:08:01;;;;;;;11.30;9.15;;;;;;;;;;5031450;28;20333;-14
2022/08/24 03:10:30;;;;;;;10.93;9.77;;;;;;;;;;5030941;28;20242;-15
2022/08/24 03:13:00;;;;;;;12.13;9.45;;;;;;;;;;5030843;28;20247;-15
2022/08/24 03:15:28;;;;;;;10.60;9.55;;;;;;;;;;5030605;28;20756;-15
2022/08/24 03:17:55;;;;;;;11.10;9.57;;;;;;;;;;5031043;28;20997;-14
2022/08/24 03:20:23;;;;;;;9.15;8.27;;;;;;;;;;5030909;28;20926;-15
2022/08/24 03:22:50;;;;;;;9.15;8.13;;;;;;;;;;5030507;28;21065;-15
2022/08/24 03:25:19;;;;;;;10.48;8.70;;;;;;;;;;5030792;28;20232;-15
2022/08/24 03:27:46;;;;;;;12.52;9.40;;;;;;;;;;5031035;28;20243;-16
2022/08/24 03:30:16;;;;;;;10.45;8.80;;;;;;;;;;5027681;28;20231;-16
2022/08/24 03:32:44;;;;;;;9.27;8.38;;;;;;;;;;5030914;28;20238;-16
2022/08/24 03:35:11;;;;;;;9.50;8.50;;;;;;;;;;5033262;28;20237;-14
2022/08/24 03:37:39;;;;;;;11.55;8.77;;;;;;;;;;5017095;28;20230;-14
2022/08/24 03:40:07;;;;;;;10.23;9.15;;;;;;;;;;5030709;28;20227;-15
2022/08/24 03:42:50;;;;;;;9.85;8.85;;;;;;;;;;5030749;28;20238;-15
2022/08/24 03:45:28;;;;;;;10.77;9.68;;;;;;;;;;5029904;28;20650;-15
2022/08/24 03:47:55;;;;;;;11.88;10.18;;;;;;;;;;5030601;28;20233;-16
2022/08/24 03:50:23;;;;;;;10.65;9.55;;;;;;;;;;5030525;28;20796;-15
2022/08/24 03:52:50;;;;;;;10.48;9.48;;;;;;;;;;5030925;28;20702;-16
2022/08/24 03:55:18;;;;;;;11.23;9.40;;;;;;;;;;5033315;28;20801;-15
2022/08/24 03:57:45;;;;;;;12.32;7.78;;;;;;;;;;5037353;28;20249;-15
2022/08/24 04:00:15;;;;;;;10.77;8.02;;;;;;;;;;5034099;28;20238;-15
2022/08/24 04:02:43;;;;;;;8.63;7.72;;;;;;;;;;5032376;28;20717;-16
2022/08/24 04:05:11;;;;;;;9.20;8.27;;;;;;;;;;5034026;28;20237;-14
2022/08/24 04:07:38;;;;;;;10.57;9.00;;;;;;;;;;5033729;28;20235;-15
2022/08/24 04:10:06;;;;;;;12.32;9.00;;;;;;;;;;5033836;28;20253;-15
2022/08/24 04:12:33;;;;;;;13.30;9.50;;;;;;;;;;5033993;28;20230;-15
2022/08/24 04:15:01;;;;;;;10.00;9.00;;;;;;;;;;5034008;28;20270;-15
2022/08/24 04:17:30;;;;;;;10.98;9.88;;;;;;;;;;5032254;28;20713;-16
2022/08/24 04:19:57;;;;;;;11.35;10.15;;;;;;;;;;5033010;28;20227;-15
2022/08/24 04:22:25;;;;;;;9.98;8.98;;;;;;;;;;5033350;28;20243;-15
2022/08/24 04:24:52;;;;;;;10.82;9.43;;;;;;;;;;5033685;28;20231;-14
2022/08/24 04:27:19;;;;;;;8.90;8.00;;;;;;;;;;5033857;28;20227;-15
2022/08/24 04:29:47;;;;;;;9.32;8.45;;;;;;;;;;5033148;28;20250;-16
2022/08/24 04:32:15;;;;;;;8.73;7.80;;;;;;;;;;5033529;28;20227;-15
2022/08/24 04:34:43;;;;;;;8.63;7.78;;;;;;;;;;5028802;28;20234;-15
2022/08/24 04:37:11;;;;;;;8.70;7.90;;;;;;;;;;5033844;28;20903;-15
2022/08/24 04:39:38;;;;;;;12.65;7.53;;;;;;;;;;5033335;28;20250;-16
2022/08/24 04:42:06;;;;;;;9.85;8.90;;;;;;;;;;5033983;28;20322;-15
2022/08/24 04:44:35;;;;;;;10.40;9.02;;;;;;;;;;5032906;28;20237;-18
2022/08/24 04:47:03;;;;;;;10.30;8.95;;;;;;;;;;5033220;28;20233;-15
2022/08/24 04:49:30;;;;;;;12.77;9.00;;;;;;;;;;5027934;28;20643;-15
2022/08/24 04:51:59;;;;;;;9.10;8.27;;;;;;;;;;5032929;28;20238;-14
2022/08/24 04:54:27;;;;;;;12.43;8.52;;;;;;;;;;5033113;28;20979;-15
2022/08/24 04:56:54;;;;;;;9.13;8.20;;;;;;;;;;5033481;28;20598;-15
2022/08/24 04:59:21;;;;;;;9.15;8.25;;;;;;;;;;5033173;28;20227;-15
2022/08/24 05:01:49;;;;;;;8.57;7.78;;;;;;;;;;5032478;28;20276;-15
2022/08/24 05:04:16;;;;;;;11.88;9.48;;;;;;;;;;5028885;28;20232;-15
2022/08/24 05:06:44;;;;;;;10.88;9.38;;;;;;;;;;5032239;28;20234;-15
2022/08/24 05:09:12;;;;;;;10.85;9.50;;;;;;;;;;5032042;28;20243;-15
2022/08/24 05:11:42;;;;;;;10.65;9.55;;;;;;;;;;5032757;28;20235;-15
2022/08/24 05:14:16;;;;;;;10.25;8.98;;;;;;;;;;5032509;28;20265;-15
2022/08/24 05:16:43;;;;;;;9.40;8.48;;;;;;;;;;5032413;28;20242;-15
2022/08/24 05:19:20;;;;;;;14.57;9.93;;;;;;;;;;5033020;28;20265;-15
2022/08/24 05:21:47;;;;;;;12.00;9.43;;;;;;;;;;5031215;28;20241;-15
2022/08/24 05:24:16;;;;;;;11.95;10.77;;;;;;;;;;5032622;28;20241;-15
2022/08/24 05:26:44;;;;;;;13.25;11.48;;;;;;;;;;5032805;28;20278;-15
2022/08/24 05:29:11;;;;;;;17.30;11.60;;;;;;;;;;5032766;28;20238;-15
2022/08/24 05:31:40;;;;;;;14.88;11.02;;;;;;;;;;5032317;28;20242;-15
2022/08/24 05:34:07;;;;;;;14.63;9.85;;;;;;;;;;5031945;28;20249;-16
2022/08/24 05:36:36;;;;;;;11.30;9.75;;;;;;;;;;5031870;28;20238;-15
2022/08/24 05:39:04;;;;;;;14.50;11.32;;;;;;;;;;5032549;28;20231;-16
2022/08/24 05:41:39;;;;;;;12.77;10.93;;;;;;;;;;5032706;28;20411;-16
2022/08/24 05:44:10;;;;;;;11.00;10.00;;;;;;;;;;5032466;28;21046;-15
2022/08/24 05:46:38;;;;;;;13.77;10.65;;;;;;;;;;5031955;28;20230;-15
2022/08/24 05:49:07;;;;;;;12.93;10.43;;;;;;;;;;5032454;28;20235;-15
2022/08/24 05:51:34;;;;;;;14.93;10.02;;;;;;;;;;5031453;28;20239;-15
2022/08/24 05:54:03;;;;;;;10.55;9.45;;;;;;;;;;5031398;28;20691;-14
2022/08/24 05:56:31;;;;;;;13.50;10.57;;;;;;;;;;5021451;28;20234;-15
2022/08/24 05:58:59;;;;;;;12.55;10.45;;;;;;;;;;5031809;28;20265;-15
2022/08/24 06:01:27;;;;;;;11.45;10.07;;;;;;;;;;5032072;28;20286;-16
2022/08/24 06:03:56;;;;;;;11.63;10.40;;;;;;;;;;5032424;28;20227;-16
2022/08/24 06:06:23;;;;;;;11.65;10.55;;;;;;;;;;5031110;28;20237;-15
2022/08/24 06:08:52;;;;;;;14.93;11.07;;;;;;;;;;5031757;28;20713;-15
2022/08/24 06:11:20;;;;;;;14.30;11.75;;;;;;;;;;5032258;28;20231;-15
2022/08/24 06:13:47;;;;;;;13.38;11.90;;;;;;;;;;5032185;28;20237;-15
2022/08/24 06:16:23;;;;;;;16.17;13.30;;;;;;;;;;5031457;28;20317;-15
2022/08/24 06:18:51;;;;;;;16.05;13.35;;;;;;;;;;5031243;28;20231;-15
2022/08/24 06:21:20;;;;;;;15.32;13.82;;;;;;;;;;5031815;28;20227;-15
2022/08/24 06:23:47;;;;;;;17.98;13.70;;;;;;;;;;5030026;28;20633;-15
2022/08/24 06:29:00;;;;;;;17.23;13.75;;;;;;;;;;5031688;28;20621;-15
2022/08/24 06:31:28;;;;;;;14.40;12.02;;;;;;;;;;5030380;28;20694;-15
2022/08/24 06:34:06;;;;;;;11.95;10.05;;;;;;;;;;5028621;28;20223;-15
2022/08/24 06:36:33;;;;;;;18.50;11.82;;;;;;;;;;5025953;28;20239;-15
2022/08/24 06:39:00;;;;;;;12.02;10.73;;;;;;;;;;5027550;28;20247;-15
2022/08/24 06:41:28;;;;;;;15.40;12.10;;;;;;;;;;5025837;28;20602;-16
2022/08/24 06:43:55;;;;;;;13.10;11.68;;;;;;;;;;5025679;28;20246;-15
2022/08/24 06:46:23;;;;;;;16.23;13.48;;;;;;;;;;5031242;28;20227;-15
2022/08/24 06:48:55;;;;;;;14.75;12.00;;;;;;;;;;5028146;28;20227;-15
2022/08/24 06:51:23;;;;;;;14.50;10.90;;;;;;;;;;5026946;28;20245;-16
2022/08/24 06:53:50;;;;;;;16.08;13.85;;;;;;;;;;5028636;28;20223;-16
2022/08/24 06:56:18;;;;;;;15.60;14.07;;;;;;;;;;5028257;28;20239;-15
2022/08/24 06:58:45;;;;;;;19.17;16.05;;;;;;;;;;5028412;28;20242;-15
2022/08/24 07:01:13;;;;;;;19.48;15.13;;;;;;;;;;5029000;28;20690;-15
2022/08/24 07:03:40;;;;;;;26.13;15.93;;;;;;;;;;5027303;28;20227;-15
2022/08/24 07:06:09;;;;;;;22.75;14.07;;;;;;;;;;5026171;28;20227;-15
2022/08/24 07:08:37;;;;;;;26.20;16.85;;;;;;;;;;5025633;28;20230;-15
2022/08/24 07:11:04;;;;;;;20.42;18.27;;;;;;;;;;5025366;28;20246;-15
2022/08/24 07:13:32;;;;;;;22.75;18.08;;;;;;;;;;5030281;28;20242;-15
2022/08/24 07:15:59;;;;;;;22.52;16.98;;;;;;;;;;5031388;28;20239;-16
2022/08/24 07:18:27;;;;;;;19.58;13.52;;;;;;;;;;5031586;28;20235;-15
2022/08/24 07:20:55;;;;;;;17.95;13.15;;;;;;;;;;5031657;28;20227;-15
2022/08/24 07:23:23;;;;;;;25.58;13.95;;;;;;;;;;5026889;28;20714;-15
2022/08/24 07:26:09;;;;;;;18.63;12.40;;;;;;;;;;5024138;28;20240;-15
2022/08/24 07:28:48;;;;;;;16.67;14.98;;;;;;;;;;5025080;28;20310;-15
2022/08/24 07:31:15;;;;;;;18.67;12.80;;;;;;;;;;5027656;28;20699;-15
2022/08/24 07:33:43;;;;;;;18.38;14.35;;;;;;;;;;5030258;28;20292;-15
2022/08/24 07:36:11;;;;;;;17.75;14.32;;;;;;;;;;5032082;28;20234;-15
2022/08/24 07:38:51;;;;;;;16.23;12.63;;;;;;;;;;5029444;28;20239;-15
2022/08/24 07:41:19;;;;;;;17.88;11.95;;;;;;;;;;5028079;28;20227;-14
2022/08/24 07:44:07;;;;;;;14.88;13.38;;;;;;;;;;5027371;28;20234;-13
2022/08/24 07:46:34;;;;;;;19.52;12.23;;;;;;;;;;5027488;28;20686;-15
2022/08/24 07:49:02;;;;;;;12.68;9.95;;;;;;;;;;5029562;28;20610;-16
2022/08/24 07:51:39;;;;;;;11.40;9.93;;;;;;;;;;5026577;28;20250;-15
2022/08/24 07:54:12;;;;;;;13.10;10.45;;;;;;;;;;5022851;28;20239;-15
2022/08/24 07:56:40;;;;;;;13.73;10.40;;;;;;;;;;5020395;28;20234;-15
2022/08/24 07:59:07;;;;;;;10.82;9.57;;;;;;;;;;5027660;28;20322;-15
2022/08/24 08:01:39;;;;;;;11.63;8.98;;;;;;;;;;5023274;28;20599;-14
2022/08/24 08:04:06;;;;;;;10.52;9.05;;;;;;;;;;5026135;28;20615;-14
2022/08/24 08:06:34;;;;;;;14.02;8.70;;;;;;;;;;5029664;28;20234;-15
2022/08/24 08:09:03;;;;;;;11.27;8.20;;;;;;;;;;5027021;28;20233;-14
2022/08/24 08:11:32;;;;;;;13.32;8.82;;;;;;;;;;5024812;28;20614;-15
2022/08/24 08:13:59;;;;;;;12.25;8.60;;;;;;;;;;5028005;28;21002;-15
2022/08/24 08:16:27;;;;;;;11.10;7.90;;;;;;;;;;5031226;28;20223;-14
2022/08/24 08:18:54;;;;;;;12.38;8.05;;;;;;;;;;5030784;28;20266;-15
2022/08/24 08:24:26;;;;;;;10.35;7.30;;;;;;;;;;5030291;28;20235;-15
2022/08/24 08:26:56;;;;;;;10.23;7.47;;;;;;;;;;5030183;28;20702;-14
2022/08/24 08:29:24;;;;;;;9.77;6.95;;;;;;;;;;5029666;28;20223;-15
2022/08/24 08:31:51;;;;;;;10.18;6.82;;;;;;;;;;5029437;28;20252;-15
2022/08/24 08:34:19;;;;;;;6.93;5.93;;;;;;;;;;5030155;28;20227;-14
2022/08/24 08:36:46;;;;;;;8.00;5.60;;;;;;;;;;5030009;28;20706;-14
2022/08/24 08:39:15;;;;;;;9.93;5.60;;;;;;;;;;5030486;28;20234;-14
2022/08/24 08:41:48;;;;;;;5.30;4.53;;;;;;;;;;5033017;28;20231;-14
2022/08/24 08:44:17;;;;;;;8.52;5.43;;;;;;;;;;5030819;28;20902;-14
2022/08/24 08:46:46;;;;;;;8.02;5.65;;;;;;;;;;5027645;28;20611;-15
2022/08/24 08:49:18;;;;;;;6.28;5.60;;;;;;;;;;5033324;28;20230;-15
2022/08/24 08:51:58;;;;;;;9.90;7.32;;;;;;;;;;5033791;28;20235;-15
2022/08/24 08:54:27;;;;;;;13.48;8.82;;;;;;;;;;5032476;28;20233;-15
2022/08/24 08:57:00;;;;;;;11.45;7.65;;;;;;;;;;5033617;28;20223;-14
2022/08/24 08:59:34;;;;;;;8.90;6.60;;;;;;;;;;5033194;28;20360;-14
2022/08/24 09:02:04;;;;;;;10.55;7.35;;;;;;;;;;5029751;28;20234;-15
2022/08/24 09:04:42;;;;;;;8.32;6.93;;;;;;;;;;5032719;28;20660;-14
2022/08/24 09:07:11;;;;;;;8.25;6.85;;;;;;;;;;5033495;28;20227;-14
2022/08/24 09:09:45;;;;;;;9.65;7.03;;;;;;;;;;5033018;28;20231;-15
2022/08/24 09:12:15;;;;;;;12.25;7.82;;;;;;;;;;5033124;28;20245;-15
2022/08/24 09:14:59;;;;;;;9.48;6.15;;;;;;;;;;5032262;28;20235;-14
2022/08/24 09:17:35;;;;;;;7.93;5.50;;;;;;;;;;5026089;28;20722;-15
2022/08/24 09:20:07;;;;;;;8.95;6.05;;;;;;;;;;5033228;28;21053;-14
2022/08/24 09:22:35;;;;;;;6.55;4.93;;;;;;;;;;5033929;28;20242;-14
2022/08/24 09:25:06;;;;;;;5.13;4.60;;;;;;;;;;5033609;28;20238;-15
2022/08/24 09:27:40;;;;;;;8.15;4.97;;;;;;;;;;5034048;28;20238;-14
2022/08/24 09:30:10;;;;;;;7.03;5.20;;;;;;;;;;5033451;28;20249;-15
2022/08/24 09:32:46;;;;;;;10.00;5.13;;;;;;;;;;5028629;28;20293;-15
2022/08/24 09:35:17;;;;;;;7.63;4.65;;;;;;;;;;5031653;28;20261;-14
2022/08/24 09:37:58;;;;;;;7.07;4.35;;;;;;;;;;5029824;28;21032;-15
2022/08/24 09:40:29;;;;;;;4.75;3.58;;;;;;;;;;5026191;28;20235;-15
2022/08/24 09:43:08;;;;;;;9.55;4.28;;;;;;;;;;5024129;28;20255;-14
2022/08/24 09:45:43;;;;;;;7.03;3.58;;;;;;;;;;5031331;28;20230;-15
2022/08/24 09:48:16;;;;;;;4.30;3.65;;;;;;;;;;5027432;28;20230;-15
2022/08/24 09:50:49;;;;;;;9.48;4.20;;;;;;;;;;5025056;28;20228;-15
2022/08/24 09:53:25;;;;;;;5.45;4.07;;;;;;;;;;5025271;28;20737;-15
2022/08/24 09:56:04;;;;;;;6.47;4.38;;;;;;;;;;5029446;28;20234;-14
2022/08/24 09:58:41;;;;;;;3.58;2.92;;;;;;;;;;5023182;28;20237;-19
2022/08/24 10:01:11;;;;;;;6.38;3.47;;;;;;;;;;5031267;28;20240;-18
2022/08/24 10:03:45;;;;;;;4.22;3.10;;;;;;;;;;5027443;28;21069;-18
2022/08/24 10:06:17;;;;;;;6.15;3.03;;;;;;;;;;5030690;28;20238;-18
2022/08/24 10:08:52;;;;;;;2.72;2.30;;;;;;;;;;5030597;28;20234;-18
2022/08/24 10:11:21;;;;;;;2.35;1.90;;;;;;;;;;5036177;28;20253;-19
2022/08/24 10:13:51;;;;;;;3.78;1.67;;;;;;;;;;5035226;28;20241;-18
2022/08/24 10:16:33;;;;;;;2.78;1.80;;;;;;;;;;5028625;28;20238;-18
2022/08/24 10:19:05;;;;;;;2.03;1.80;;;;;;;;;;5031767;28;20284;-18
2022/08/24 10:21:37;;;;;;;2.30;1.98;;;;;;;;;;5031128;28;20239;-17
2022/08/24 10:24:12;;;;;;;2.72;2.10;;;;;;;;;;5029406;28;20234;-18
2022/08/24 10:26:41;;;;;;;4.03;1.80;;;;;;;;;;5029482;28;20249;-19
2022/08/24 10:29:16;;;;;;;3.08;1.63;;;;;;;;;;5038522;28;20296;-18
2022/08/24 10:31:48;;;;;;;2.40;1.88;;;;;;;;;;5030655;28;20794;-18
2022/08/24 10:34:20;;;;;;;6.13;1.98;;;;;;;;;;5036529;28;20251;-19
2022/08/24 10:37:02;;;;;;;3.00;1.88;;;;;;;;;;5036066;28;20822;-18
2022/08/24 10:39:41;;;;;;;6.90;2.00;;;;;;;;;;5033297;28;20689;-18
2022/08/24 10:45:17;;;;;;;4.35;1.90;;;;;;;;;;5006119;28;20227;-20
2022/08/24 10:47:52;;;;;;;6.00;2.30;;;;;;;;;;5028524;28;20249;-18
2022/08/24 10:50:20;;;;;;;3.97;1.90;;;;;;;;;;5032587;28;20814;-18
2022/08/24 10:53:02;;;;;;;2.20;1.75;;;;;;;;;;5027547;28;20231;-18
2022/08/24 10:55:30;;;;;;;3.42;1.80;;;;;;;;;;5029680;28;20245;-19
2022/08/24 10:58:06;;;;;;;2.53;1.95;;;;;;;;;;5027991;28;20241;-18
2022/08/24 11:00:34;;;;;;;2.40;2.00;;;;;;;;;;5039078;28;20238;-18
2022/08/24 11:03:07;;;;;;;3.47;1.90;;;;;;;;;;5033238;28;20241;-18
2022/08/24 11:05:35;;;;;;;5.45;1.65;;;;;;;;;;5026586;28;20223;-19
2022/08/24 11:08:04;;;;;;;5.75;2.10;;;;;;;;;;5035038;28;20239;-18
2022/08/24 11:10:32;;;;;;;7.50;2.00;;;;;;;;;;5035501;28;20240;-18
2022/08/24 11:13:13;;;;;;;7.65;1.70;;;;;;;;;;5035577;28;20231;-18
2022/08/24 11:15:46;;;;;;;4.53;1.92;;;;;;;;;;5038107;28;20283;-18
2022/08/24 11:18:15;;;;;;;3.65;2.28;;;;;;;;;;5029170;28;20227;-18
2022/08/24 11:20:45;;;;;;;3.88;1.88;;;;;;;;;;5030016;28;20242;-19
2022/08/24 11:23:14;;;;;;;2.92;1.70;;;;;;;;;;5033816;28;20256;-18
2022/08/24 11:25:43;;;;;;;4.97;1.60;;;;;;;;;;5037785;28;20231;-18
2022/08/24 11:28:14;;;;;;;3.95;2.17;;;;;;;;;;5032513;28;20727;-18
2022/08/24 11:30:41;;;;;;;4.38;1.73;;;;;;;;;;5029039;28;20238;-18
2022/08/24 11:33:25;;;;;;;4.72;1.75;;;;;;;;;;5026667;28;20238;-18
2022/08/24 11:35:53;;;;;;;2.67;1.67;;;;;;;;;;5026177;28;20285;-18
2022/08/24 11:38:21;;;;;;;1.83;1.52;;;;;;;;;;5028168;28;20230;-18
2022/08/24 11:40:50;;;;;;;2.00;1.80;;;;;;;;;;5036428;28;20230;-18
2022/08/24 11:43:25;;;;;;;2.20;1.65;;;;;;;;;;5033328;28;20238;-19
2022/08/24 11:45:57;;;;;;;2.55;2.00;;;;;;;;;;5033082;28;20222;-18
2022/08/24 11:48:28;;;;;;;1.95;1.50;;;;;;;;;;5033835;28;20231;-19
2022/08/24 11:50:57;;;;;;;3.97;1.73;;;;;;;;;;5026718;28;20238;-18
2022/08/24 11:53:27;;;;;;;2.13;1.50;;;;;;;;;;5026311;28;20235;-19
2022/08/24 11:55:57;;;;;;;2.83;1.63;;;;;;;;;;5024041;28;20670;-19
2022/08/24 11:58:30;;;;;;;2.08;1.88;;;;;;;;;;5033593;28;20732;-19
2022/08/24 12:00:59;;;;;;;6.20;2.03;;;;;;;;;;5029999;28;20288;-18
2022/08/24 12:03:39;;;;;;;3.67;1.98;;;;;;;;;;5034390;28;20246;-18
2022/08/24 12:06:08;;;;;;;2.17;1.80;;;;;;;;;;5023115;28;20234;-18
2022/08/24 12:08:42;;;;;;;2.60;1.70;;;;;;;;;;5027699;28;20237;-18
2022/08/24 12:11:12;;;;;;;6.93;1.80;;;;;;;;;;5029403;28;20237;-17
2022/08/24 12:13:43;;;;;;;5.38;2.03;;;;;;;;;;5028251;28;21023;-18
2022/08/24 12:16:12;;;;;;;5.45;1.58;;;;;;;;;;5038503;28;20705;-17
2022/08/24 12:18:46;;;;;;;3.75;1.83;;;;;;;;;;5031839;28;20231;-18
2022/08/24 12:21:13;;;;;;;3.38;2.05;;;;;;;;;;5025778;28;20347;-17
2022/08/24 12:23:41;;;;;;;5.15;2.53;;;;;;;;;;5033460;28;20253;-18
2022/08/24 12:26:09;;;;;;;3.08;2.78;;;;;;;;;;5036107;28;20736;-18
2022/08/24 12:28:38;;;;;;;3.40;2.88;;;;;;;;;;5036599;28;20249;-18
2022/08/24 12:31:07;;;;;;;4.05;2.88;;;;;;;;;;5033409;28;20234;-17
2022/08/24 12:33:35;;;;;;;3.22;2.92;;;;;;;;;;5031558;28;21070;-17
2022/08/24 12:36:07;;;;;;;7.13;3.35;;;;;;;;;;5032476;28;20235;-18
2022/08/24 12:38:35;;;;;;;4.85;3.05;;;;;;;;;;5031688;28;20238;-18
2022/08/24 12:41:03;;;;;;;2.95;2.60;;;;;;;;;;5031815;28;20238;-18
2022/08/24 12:43:47;;;;;;;3.03;2.60;;;;;;;;;;5037737;28;20246;-18
2022/08/24 12:46:16;;;;;;;6.50;2.63;;;;;;;;;;5043602;28;20230;-18
2022/08/24 12:48:44;;;;;;;7.95;2.88;;;;;;;;;;5029218;28;20245;-18
2022/08/24 12:51:16;;;;;;;4.88;2.95;;;;;;;;;;5032324;28;20245;-18
2022/08/24 12:53:48;;;;;;;3.50;2.75;;;;;;;;;;5030824;28;20249;-18
2022/08/24 12:56:25;;;;;;;3.60;2.75;;;;;;;;;;5034000;28;20230;-18
2022/08/24 12:59:14;;;;;;;6.15;2.78;;;;;;;;;;5036409;28;20245;-17
2022/08/24 13:01:41;;;;;;;5.75;2.90;;;;;;;;;;5030141;28;20230;-18
2022/08/24 13:04:11;;;;;;;5.00;2.88;;;;;;;;;;5027203;28;20329;-18
2022/08/24 13:06:44;;;;;;;3.88;2.67;;;;;;;;;;5031009;28;20246;-18
2022/08/24 13:09:15;;;;;;;4.03;2.70;;;;;;;;;;5029583;28;20238;-18
2022/08/24 13:11:43;;;;;;;6.47;2.40;;;;;;;;;;5032902;28;20234;-18
2022/08/24 13:14:18;;;;;;;3.10;2.60;;;;;;;;;;5032903;28;20242;-18
2022/08/24 13:16:50;;;;;;;2.65;2.28;;;;;;;;;;5026433;28;20235;-18
2022/08/24 13:19:18;;;;;;;2.58;2.38;;;;;;;;;;5032859;28;20241;-18
2022/08/24 13:21:51;;;;;;;5.07;2.40;;;;;;;;;;5032194;28;20222;-18
2022/08/24 13:24:48;;;;;;;4.78;2.38;;;;;;;;;;5030748;28;20238;-19
2022/08/24 13:27:46;;;;;;;5.63;2.45;;;;;;;;;;5028727;28;20270;-18
2022/08/24 13:30:21;;;;;;;3.97;2.25;;;;;;;;;;5032093;28;20235;-18
2022/08/24 13:32:50;;;;;;;4.75;2.40;;;;;;;;;;5032929;28;20237;-18
2022/08/24 13:35:35;;;;;;;5.15;2.42;;;;;;;;;;5031942;28;20265;-17
2022/08/24 13:38:21;;;;;;;7.28;2.47;;;;;;;;;;5032496;28;20223;-18
2022/08/24 13:40:51;;;;;;;3.30;2.17;;;;;;;;;;5026282;28;20234;-18
2022/08/24 13:43:19;;;;;;;6.45;2.78;;;;;;;;;;5032537;28;20231;-18
2022/08/24 13:45:46;;;;;;;2.58;2.25;;;;;;;;;;5032450;28;20227;-18
2022/08/24 13:48:17;;;;;;;4.43;2.17;;;;;;;;;;5032488;28;20245;-17
2022/08/24 13:50:47;;;;;;;5.13;2.00;;;;;;;;;;5031941;28;20232;-18
2022/08/24 13:53:25;;;;;;;3.90;2.28;;;;;;;;;;5032880;28;20230;-17
2022/08/24 13:55:54;;;;;;;3.40;2.10;;;;;;;;;;5031130;28;20246;-18
2022/08/24 13:58:25;;;;;;;4.05;2.00;;;;;;;;;;5032565;28;20698;-18
2022/08/24 14:00:54;;;;;;;4.88;2.03;;;;;;;;;;5031249;28;20231;-18
2022/08/24 14:03:51;;;;;;;7.50;2.25;;;;;;;;;;5032296;28;20230;-18
2022/08/24 14:06:21;;;;;;;2.08;1.98;;;;;;;;;;5032068;28;20991;-18
2022/08/24 14:08:50;;;;;;;2.55;2.15;;;;;;;;;;5032369;28;20234;-18
2022/08/24 14:11:19;;;;;;;4.75;2.25;;;;;;;;;;5031188;28;20245;-17
2022/08/24 14:13:50;;;;;;;7.85;2.15;;;;;;;;;;5027405;28;20231;-17
2022/08/24 14:19:13;;;;;;;3.20;2.13;;;;;;;;;;5030089;28;20310;-18
2022/08/24 14:21:42;;;;;;;5.55;2.40;;;;;;;;;;5031654;28;20235;-18
2022/08/24 14:24:10;;;;;;;2.25;1.95;;;;;;;;;;5031141;28;20231;-17
2022/08/24 14:27:05;;;;;;;3.88;2.10;;;;;;;;;;5031446;28;20227;-17
2022/08/24 14:29:35;;;;;;;3.28;2.10;;;;;;;;;;5029875;28;20239;-17
2022/08/24 14:32:33;;;;;;;2.35;1.80;;;;;;;;;;5031530;28;20227;-18
2022/08/24 14:35:18;;;;;;;2.60;1.75;;;;;;;;;;5030791;28;20234;-18
2022/08/24 14:37:48;;;;;;;2.60;2.30;;;;;;;;;;5030431;28;20239;-18
2022/08/24 14:40:23;;;;;;;3.65;2.05;;;;;;;;;;5032127;28;20234;-18
2022/08/24 14:42:53;;;;;;;1.70;1.60;;;;;;;;;;5031689;28;20241;-18
2022/08/24 14:45:23;;;;;;;2.22;1.70;;;;;;;;;;5031235;28;20235;-18
2022/08/24 14:47:55;;;;;;;3.22;1.80;;;;;;;;;;5031502;28;20778;-18
2022/08/24 14:50:24;;;;;;;4.32;1.88;;;;;;;;;;5031494;28;20239;-18
2022/08/24 14:52:53;;;;;;;3.35;1.67;;;;;;;;;;5030584;28;20995;-17
2022/08/24 14:55:23;;;;;;;4.47;2.20;;;;;;;;;;5031281;28;20242;-18
2022/08/24 14:57:57;;;;;;;4.30;2.10;;;;;;;;;;5029643;28;20694;-18
2022/08/24 15:00:31;;;;;;;2.65;2.00;;;;;;;;;;5028418;28;20990;-18
2022/08/24 15:03:06;;;;;;;5.05;2.10;;;;;;;;;;5030075;28;20227;-18
2022/08/24 15:05:41;;;;;;;3.60;1.77;;;;;;;;;;5022136;28;20288;-17
2022/08/24 15:08:10;;;;;;;9.07;1.63;;;;;;;;;;5030236;28;20222;-18